Forside
METAR-TAF:

METAR-TAF

Lufthavne :

Mauritius, Mauritius

Breddekreds: 20-26S, længdekreds: 057-40E, højde: 55 m

Aktuelle vejr

Denne rapport blev lavet for 6 minutter siden, kl. 16:00 UTC
Vind 9 kt fra østnordøst
Temperatur 23°C
Fugtighed 73%
Tryk 1019 hPa
Sigt 10 km eller mere
Spredte skyer i en højde af 1600 ft

METAR: FIMP 161600Z 07009KT 9999 SCT016 23/18 Q1019

Tid: 20:06 (16:06 UTC)

Vejrudsigter

Denne rapport blev lavet for 4 timer og 36 minutter siden, kl. 11:30 UTC
Foreløbig gælder fra 16 på 12 UTC til 17 på 18 UTC
Vind 12 kt fra øst
Sigt 10 km eller mere
Spredte skyer i en højde af 1700 ft
Sandsynlighed 30% :
Midlertidig
fra 17 på 06 UTC til 17 på 18 UTC
Sigt: 7000 m
Nogle få skyer i en højde af 1200 ft
Brudte skyer i en højde af 1600 ft
Brudte skyer i en højde af 5000 ft
let regnbyger

TAF: FIMP 161130Z 1612/1718 09012KT 9999 SCT017 PROB30 TEMPO 1706/1718 7000 -SHRA FEW012 BKN016 BKN050

Vejrobservationer og prognoser fra mere end 4000 lufthavne (METAR og TAF).

De gule og røde prikker repræsenterer de meteorologiske stationer.

Flyt musen over at se navnet på stationen.

Så klik over at se vejr observationer og prognoser.

At skifte det kort: Klik på de grønne knapper med et sort kors for at zoome ind; på den grønne knap med en bindestreg for at zoome ud; eller på de grønne pile for tilstødende kort.


METAR-TAF: